sensor_id;sensor_type;location;lat;lon;timestamp;P1;durP1;ratioP1;P2;durP2;ratioP2
8102;SDS011;4094;49.948;11.574;2023-05-07T00:00:34;6.50;;;6.10;;
8102;SDS011;4094;49.948;11.574;2023-05-07T00:03:05;7.23;;;6.53;;
8102;SDS011;4094;49.948;11.574;2023-05-07T00:05:35;9.13;;;6.40;;
8102;SDS011;4094;49.948;11.574;2023-05-07T00:08:05;6.93;;;6.33;;
8102;SDS011;4094;49.948;11.574;2023-05-07T00:10:34;7.43;;;6.83;;
8102;SDS011;4094;49.948;11.574;2023-05-07T00:13:03;7.30;;;6.80;;
8102;SDS011;4094;49.948;11.574;2023-05-07T00:15:32;6.90;;;6.40;;
8102;SDS011;4094;49.948;11.574;2023-05-07T00:18:01;6.97;;;6.43;;
8102;SDS011;4094;49.948;11.574;2023-05-07T00:20:32;7.47;;;6.90;;
8102;SDS011;4094;49.948;11.574;2023-05-07T00:23:02;7.40;;;6.70;;
8102;SDS011;4094;49.948;11.574;2023-05-07T00:25:31;7.83;;;7.23;;
8102;SDS011;4094;49.948;11.574;2023-05-07T00:28:01;7.50;;;6.90;;
8102;SDS011;4094;49.948;11.574;2023-05-07T00:30:31;7.07;;;6.57;;
8102;SDS011;4094;49.948;11.574;2023-05-07T00:33:00;6.97;;;6.40;;
8102;SDS011;4094;49.948;11.574;2023-05-07T00:35:29;7.07;;;6.57;;
8102;SDS011;4094;49.948;11.574;2023-05-07T00:38:00;6.93;;;6.43;;
8102;SDS011;4094;49.948;11.574;2023-05-07T00:40:28;6.60;;;6.20;;
8102;SDS011;4094;49.948;11.574;2023-05-07T00:42:57;6.47;;;6.07;;
8102;SDS011;4094;49.948;11.574;2023-05-07T00:45:27;7.07;;;6.57;;
8102;SDS011;4094;49.948;11.574;2023-05-07T00:47:57;7.20;;;6.70;;
8102;SDS011;4094;49.948;11.574;2023-05-07T00:50:28;7.30;;;6.70;;
8102;SDS011;4094;49.948;11.574;2023-05-07T00:52:59;7.70;;;7.20;;
8102;SDS011;4094;49.948;11.574;2023-05-07T00:55:29;6.90;;;6.50;;
8102;SDS011;4094;49.948;11.574;2023-05-07T00:57:58;7.57;;;6.33;;
8102;SDS011;4094;49.948;11.574;2023-05-07T01:00:27;6.97;;;6.47;;
8102;SDS011;4094;49.948;11.574;2023-05-07T01:02:56;7.17;;;6.77;;
8102;SDS011;4094;49.948;11.574;2023-05-07T01:05:26;6.80;;;6.40;;
8102;SDS011;4094;49.948;11.574;2023-05-07T01:07:59;7.63;;;6.97;;
8102;SDS011;4094;49.948;11.574;2023-05-07T01:10:31;7.40;;;7.00;;
8102;SDS011;4094;49.948;11.574;2023-05-07T01:13:00;7.30;;;6.80;;
8102;SDS011;4094;49.948;11.574;2023-05-07T01:15:30;7.03;;;6.53;;
8102;SDS011;4094;49.948;11.574;2023-05-07T01:17:59;7.00;;;6.50;;
8102;SDS011;4094;49.948;11.574;2023-05-07T01:20:33;7.40;;;6.90;;
8102;SDS011;4094;49.948;11.574;2023-05-07T01:23:04;7.63;;;7.03;;
8102;SDS011;4094;49.948;11.574;2023-05-07T01:25:35;7.63;;;7.03;;
8102;SDS011;4094;49.948;11.574;2023-05-07T01:28:05;7.57;;;7.07;;
8102;SDS011;4094;49.948;11.574;2023-05-07T01:30:36;6.60;;;6.10;;
8102;SDS011;4094;49.948;11.574;2023-05-07T01:33:10;7.10;;;6.63;;
8102;SDS011;4094;49.948;11.574;2023-05-07T01:35:45;6.97;;;6.57;;
8102;SDS011;4094;49.948;11.574;2023-05-07T01:38:19;6.80;;;6.40;;
8102;SDS011;4094;49.948;11.574;2023-05-07T01:40:50;6.53;;;6.13;;
8102;SDS011;4094;49.948;11.574;2023-05-07T01:43:19;7.27;;;6.87;;
8102;SDS011;4094;49.948;11.574;2023-05-07T01:45:49;6.87;;;6.47;;
8102;SDS011;4094;49.948;11.574;2023-05-07T01:48:18;7.47;;;7.07;;
8102;SDS011;4094;49.948;11.574;2023-05-07T01:50:47;7.13;;;6.73;;
8102;SDS011;4094;49.948;11.574;2023-05-07T01:53:18;7.00;;;6.60;;
8102;SDS011;4094;49.948;11.574;2023-05-07T01:55:47;8.17;;;7.57;;
8102;SDS011;4094;49.948;11.574;2023-05-07T01:58:17;7.27;;;6.80;;
8102;SDS011;4094;49.948;11.574;2023-05-07T02:00:46;7.90;;;7.40;;
8102;SDS011;4094;49.948;11.574;2023-05-07T02:03:15;7.80;;;7.30;;
8102;SDS011;4094;49.948;11.574;2023-05-07T02:05:53;8.20;;;7.50;;
8102;SDS011;4094;49.948;11.574;2023-05-07T02:08:30;7.73;;;7.20;;
8102;SDS011;4094;49.948;11.574;2023-05-07T02:11:00;7.63;;;7.13;;
8102;SDS011;4094;49.948;11.574;2023-05-07T02:13:32;7.77;;;7.33;;
8102;SDS011;4094;49.948;11.574;2023-05-07T02:16:03;8.10;;;7.60;;
8102;SDS011;4094;49.948;11.574;2023-05-07T02:18:33;7.80;;;7.20;;
8102;SDS011;4094;49.948;11.574;2023-05-07T02:21:03;7.33;;;6.93;;
8102;SDS011;4094;49.948;11.574;2023-05-07T02:23:33;7.30;;;6.90;;
8102;SDS011;4094;49.948;11.574;2023-05-07T02:26:03;7.30;;;6.90;;
8102;SDS011;4094;49.948;11.574;2023-05-07T02:28:33;7.47;;;6.93;;
8102;SDS011;4094;49.948;11.574;2023-05-07T02:31:05;7.90;;;7.40;;
8102;SDS011;4094;49.948;11.574;2023-05-07T02:33:35;7.37;;;6.87;;
8102;SDS011;4094;49.948;11.574;2023-05-07T02:36:07;7.83;;;7.33;;
8102;SDS011;4094;49.948;11.574;2023-05-07T02:39:01;7.73;;;7.23;;
8102;SDS011;4094;49.948;11.574;2023-05-07T02:41:30;7.87;;;7.27;;
8102;SDS011;4094;49.948;11.574;2023-05-07T02:44:00;7.50;;;7.10;;
8102;SDS011;4094;49.948;11.574;2023-05-07T02:46:29;8.40;;;7.90;;
8102;SDS011;4094;49.948;11.574;2023-05-07T02:49:05;8.20;;;7.70;;
8102;SDS011;4094;49.948;11.574;2023-05-07T02:51:34;7.83;;;7.43;;
8102;SDS011;4094;49.948;11.574;2023-05-07T02:54:10;7.80;;;7.30;;
8102;SDS011;4094;49.948;11.574;2023-05-07T02:56:39;8.03;;;7.53;;
8102;SDS011;4094;49.948;11.574;2023-05-07T02:59:08;8.33;;;7.73;;
8102;SDS011;4094;49.948;11.574;2023-05-07T03:01:40;8.50;;;7.80;;
8102;SDS011;4094;49.948;11.574;2023-05-07T03:04:12;8.00;;;7.50;;
8102;SDS011;4094;49.948;11.574;2023-05-07T03:06:41;7.90;;;7.43;;
8102;SDS011;4094;49.948;11.574;2023-05-07T03:09:12;7.83;;;7.33;;
8102;SDS011;4094;49.948;11.574;2023-05-07T03:11:41;7.80;;;7.30;;
8102;SDS011;4094;49.948;11.574;2023-05-07T03:14:11;8.63;;;7.83;;
8102;SDS011;4094;49.948;11.574;2023-05-07T03:16:40;9.03;;;8.43;;
8102;SDS011;4094;49.948;11.574;2023-05-07T03:19:09;8.00;;;7.50;;
8102;SDS011;4094;49.948;11.574;2023-05-07T03:21:39;8.27;;;7.77;;
8102;SDS011;4094;49.948;11.574;2023-05-07T03:24:08;7.87;;;7.30;;
8102;SDS011;4094;49.948;11.574;2023-05-07T03:26:38;8.13;;;7.60;;
8102;SDS011;4094;49.948;11.574;2023-05-07T03:29:07;8.07;;;7.57;;
8102;SDS011;4094;49.948;11.574;2023-05-07T03:31:37;8.10;;;7.50;;
8102;SDS011;4094;49.948;11.574;2023-05-07T03:34:06;8.70;;;8.00;;
8102;SDS011;4094;49.948;11.574;2023-05-07T03:36:35;8.07;;;7.57;;
8102;SDS011;4094;49.948;11.574;2023-05-07T03:39:08;8.00;;;7.40;;
8102;SDS011;4094;49.948;11.574;2023-05-07T03:41:41;7.97;;;7.50;;
8102;SDS011;4094;49.948;11.574;2023-05-07T03:44:11;8.80;;;8.00;;
8102;SDS011;4094;49.948;11.574;2023-05-07T03:46:41;8.70;;;8.10;;
8102;SDS011;4094;49.948;11.574;2023-05-07T03:49:11;8.83;;;8.20;;
8102;SDS011;4094;49.948;11.574;2023-05-07T03:51:41;8.47;;;7.97;;
8102;SDS011;4094;49.948;11.574;2023-05-07T03:54:11;8.53;;;8.03;;
8102;SDS011;4094;49.948;11.574;2023-05-07T03:56:45;9.37;;;7.90;;
8102;SDS011;4094;49.948;11.574;2023-05-07T03:59:15;8.50;;;7.90;;
8102;SDS011;4094;49.948;11.574;2023-05-07T04:01:48;8.97;;;8.37;;
8102;SDS011;4094;49.948;11.574;2023-05-07T04:04:20;8.43;;;7.83;;
8102;SDS011;4094;49.948;11.574;2023-05-07T04:06:49;9.03;;;8.30;;
8102;SDS011;4094;49.948;11.574;2023-05-07T04:09:19;8.70;;;8.20;;
8102;SDS011;4094;49.948;11.574;2023-05-07T04:11:50;8.30;;;7.70;;
8102;SDS011;4094;49.948;11.574;2023-05-07T04:14:19;8.87;;;8.17;;
8102;SDS011;4094;49.948;11.574;2023-05-07T04:16:49;9.37;;;8.63;;
8102;SDS011;4094;49.948;11.574;2023-05-07T04:19:18;8.53;;;7.97;;
8102;SDS011;4094;49.948;11.574;2023-05-07T04:21:51;8.33;;;7.73;;
8102;SDS011;4094;49.948;11.574;2023-05-07T04:24:21;9.40;;;8.70;;
8102;SDS011;4094;49.948;11.574;2023-05-07T04:26:51;8.93;;;8.33;;
8102;SDS011;4094;49.948;11.574;2023-05-07T04:29:23;8.50;;;7.90;;
8102;SDS011;4094;49.948;11.574;2023-05-07T04:31:52;8.93;;;8.33;;
8102;SDS011;4094;49.948;11.574;2023-05-07T04:34:23;8.97;;;8.27;;
8102;SDS011;4094;49.948;11.574;2023-05-07T04:36:53;9.27;;;8.67;;
8102;SDS011;4094;49.948;11.574;2023-05-07T04:39:22;8.97;;;8.37;;
8102;SDS011;4094;49.948;11.574;2023-05-07T04:41:53;9.00;;;8.40;;
8102;SDS011;4094;49.948;11.574;2023-05-07T04:44:22;9.13;;;8.60;;
8102;SDS011;4094;49.948;11.574;2023-05-07T04:46:52;9.60;;;9.00;;
8102;SDS011;4094;49.948;11.574;2023-05-07T04:49:21;9.37;;;8.73;;
8102;SDS011;4094;49.948;11.574;2023-05-07T04:51:53;9.57;;;8.87;;
8102;SDS011;4094;49.948;11.574;2023-05-07T04:54:24;9.00;;;8.43;;
8102;SDS011;4094;49.948;11.574;2023-05-07T04:56:55;9.50;;;8.90;;
8102;SDS011;4094;49.948;11.574;2023-05-07T04:59:25;8.47;;;7.97;;
8102;SDS011;4094;49.948;11.574;2023-05-07T05:01:54;9.40;;;8.80;;
8102;SDS011;4094;49.948;11.574;2023-05-07T05:04:24;10.53;;;9.83;;
8102;SDS011;4094;49.948;11.574;2023-05-07T05:06:54;10.00;;;9.30;;
8102;SDS011;4094;49.948;11.574;2023-05-07T05:09:23;10.10;;;9.40;;
8102;SDS011;4094;49.948;11.574;2023-05-07T05:11:52;9.87;;;9.23;;
8102;SDS011;4094;49.948;11.574;2023-05-07T05:14:23;10.20;;;9.50;;
8102;SDS011;4094;49.948;11.574;2023-05-07T05:16:53;10.17;;;9.47;;
8102;SDS011;4094;49.948;11.574;2023-05-07T05:19:22;10.60;;;9.90;;
8102;SDS011;4094;49.948;11.574;2023-05-07T05:21:51;10.40;;;9.70;;
8102;SDS011;4094;49.948;11.574;2023-05-07T05:24:20;11.87;;;10.93;;
8102;SDS011;4094;49.948;11.574;2023-05-07T05:26:49;11.93;;;11.13;;
8102;SDS011;4094;49.948;11.574;2023-05-07T05:29:21;10.20;;;9.40;;
8102;SDS011;4094;49.948;11.574;2023-05-07T05:31:52;10.87;;;10.17;;
8102;SDS011;4094;49.948;11.574;2023-05-07T05:34:22;10.20;;;9.40;;
8102;SDS011;4094;49.948;11.574;2023-05-07T05:36:51;10.60;;;9.80;;
8102;SDS011;4094;49.948;11.574;2023-05-07T05:39:20;11.27;;;10.47;;
8102;SDS011;4094;49.948;11.574;2023-05-07T05:41:51;11.33;;;10.53;;
8102;SDS011;4094;49.948;11.574;2023-05-07T05:44:21;11.80;;;11.00;;
8102;SDS011;4094;49.948;11.574;2023-05-07T05:46:51;11.97;;;11.07;;
8102;SDS011;4094;49.948;11.574;2023-05-07T05:49:22;11.67;;;10.87;;
8102;SDS011;4094;49.948;11.574;2023-05-07T05:51:51;11.10;;;10.30;;
8102;SDS011;4094;49.948;11.574;2023-05-07T05:54:21;11.57;;;10.63;;
8102;SDS011;4094;49.948;11.574;2023-05-07T05:56:50;12.60;;;11.60;;
8102;SDS011;4094;49.948;11.574;2023-05-07T05:59:20;11.60;;;10.70;;
8102;SDS011;4094;49.948;11.574;2023-05-07T06:01:49;12.90;;;12.00;;
8102;SDS011;4094;49.948;11.574;2023-05-07T06:04:20;12.37;;;11.47;;
8102;SDS011;4094;49.948;11.574;2023-05-07T06:06:49;13.10;;;12.10;;
8102;SDS011;4094;49.948;11.574;2023-05-07T06:09:20;12.37;;;11.33;;
8102;SDS011;4094;49.948;11.574;2023-05-07T06:11:50;12.93;;;11.93;;
8102;SDS011;4094;49.948;11.574;2023-05-07T06:14:20;12.23;;;11.33;;
8102;SDS011;4094;49.948;11.574;2023-05-07T06:16:49;12.90;;;12.00;;
8102;SDS011;4094;49.948;11.574;2023-05-07T06:19:20;12.80;;;11.90;;
8102;SDS011;4094;49.948;11.574;2023-05-07T06:21:53;12.67;;;11.67;;
8102;SDS011;4094;49.948;11.574;2023-05-07T06:24:24;12.50;;;11.57;;
8102;SDS011;4094;49.948;11.574;2023-05-07T06:26:53;12.10;;;11.20;;
8102;SDS011;4094;49.948;11.574;2023-05-07T06:29:23;12.10;;;11.10;;
8102;SDS011;4094;49.948;11.574;2023-05-07T06:31:53;12.10;;;11.10;;
8102;SDS011;4094;49.948;11.574;2023-05-07T06:34:24;12.10;;;11.23;;
8102;SDS011;4094;49.948;11.574;2023-05-07T06:36:53;11.97;;;11.03;;
8102;SDS011;4094;49.948;11.574;2023-05-07T06:39:37;12.80;;;11.73;;
8102;SDS011;4094;49.948;11.574;2023-05-07T06:42:06;11.53;;;10.63;;
8102;SDS011;4094;49.948;11.574;2023-05-07T06:44:40;11.87;;;10.97;;
8102;SDS011;4094;49.948;11.574;2023-05-07T06:47:12;11.83;;;10.93;;
8102;SDS011;4094;49.948;11.574;2023-05-07T06:49:46;11.03;;;10.23;;
8102;SDS011;4094;49.948;11.574;2023-05-07T06:52:18;11.50;;;10.60;;
8102;SDS011;4094;49.948;11.574;2023-05-07T06:54:49;11.13;;;10.30;;
8102;SDS011;4094;49.948;11.574;2023-05-07T06:57:20;11.20;;;10.33;;
8102;SDS011;4094;49.948;11.574;2023-05-07T06:59:49;9.67;;;8.87;;
8102;SDS011;4094;49.948;11.574;2023-05-07T07:02:19;10.67;;;9.80;;
8102;SDS011;4094;49.948;11.574;2023-05-07T07:04:51;10.57;;;9.77;;
8102;SDS011;4094;49.948;11.574;2023-05-07T07:07:20;10.93;;;10.07;;
8102;SDS011;4094;49.948;11.574;2023-05-07T07:09:50;11.63;;;10.70;;
8102;SDS011;4094;49.948;11.574;2023-05-07T07:12:19;10.43;;;9.60;;
8102;SDS011;4094;49.948;11.574;2023-05-07T07:14:49;11.77;;;10.80;;
8102;SDS011;4094;49.948;11.574;2023-05-07T07:17:19;10.73;;;9.93;;
8102;SDS011;4094;49.948;11.574;2023-05-07T07:19:48;10.23;;;9.33;;
8102;SDS011;4094;49.948;11.574;2023-05-07T07:22:19;10.43;;;9.63;;
8102;SDS011;4094;49.948;11.574;2023-05-07T07:24:48;10.13;;;9.33;;
8102;SDS011;4094;49.948;11.574;2023-05-07T07:27:18;10.80;;;9.80;;
8102;SDS011;4094;49.948;11.574;2023-05-07T07:29:47;10.27;;;9.47;;
8102;SDS011;4094;49.948;11.574;2023-05-07T07:32:16;9.90;;;9.17;;
8102;SDS011;4094;49.948;11.574;2023-05-07T07:34:46;10.90;;;9.97;;
8102;SDS011;4094;49.948;11.574;2023-05-07T07:37:15;9.97;;;9.17;;
8102;SDS011;4094;49.948;11.574;2023-05-07T07:39:46;10.17;;;9.27;;
8102;SDS011;4094;49.948;11.574;2023-05-07T07:42:15;9.50;;;8.80;;
8102;SDS011;4094;49.948;11.574;2023-05-07T07:44:44;9.20;;;8.60;;
8102;SDS011;4094;49.948;11.574;2023-05-07T07:47:15;10.00;;;9.20;;
8102;SDS011;4094;49.948;11.574;2023-05-07T07:49:46;9.87;;;9.07;;
8102;SDS011;4094;49.948;11.574;2023-05-07T07:52:17;9.73;;;8.97;;
8102;SDS011;4094;49.948;11.574;2023-05-07T07:54:49;10.00;;;9.20;;
8102;SDS011;4094;49.948;11.574;2023-05-07T07:57:18;9.63;;;8.73;;
8102;SDS011;4094;49.948;11.574;2023-05-07T07:59:48;9.10;;;8.40;;
8102;SDS011;4094;49.948;11.574;2023-05-07T08:02:19;10.10;;;9.37;;
8102;SDS011;4094;49.948;11.574;2023-05-07T08:04:50;9.90;;;9.13;;
8102;SDS011;4094;49.948;11.574;2023-05-07T08:07:19;10.17;;;9.37;;
8102;SDS011;4094;49.948;11.574;2023-05-07T08:09:52;9.77;;;9.07;;
8102;SDS011;4094;49.948;11.574;2023-05-07T08:12:24;10.23;;;9.43;;
8102;SDS011;4094;49.948;11.574;2023-05-07T08:14:54;8.80;;;8.20;;
8102;SDS011;4094;49.948;11.574;2023-05-07T08:17:23;9.93;;;9.13;;
8102;SDS011;4094;49.948;11.574;2023-05-07T08:19:53;9.33;;;8.63;;
8102;SDS011;4094;49.948;11.574;2023-05-07T08:22:22;10.03;;;9.23;;
8102;SDS011;4094;49.948;11.574;2023-05-07T08:24:53;10.77;;;9.77;;
8102;SDS011;4094;49.948;11.574;2023-05-07T08:27:23;9.90;;;9.20;;
8102;SDS011;4094;49.948;11.574;2023-05-07T08:29:52;9.83;;;9.10;;
8102;SDS011;4094;49.948;11.574;2023-05-07T08:32:22;9.70;;;8.90;;
8102;SDS011;4094;49.948;11.574;2023-05-07T08:34:52;8.87;;;8.17;;
8102;SDS011;4094;49.948;11.574;2023-05-07T08:37:21;10.47;;;9.57;;
8102;SDS011;4094;49.948;11.574;2023-05-07T08:39:52;10.70;;;9.90;;
8102;SDS011;4094;49.948;11.574;2023-05-07T08:42:25;9.90;;;9.03;;
8102;SDS011;4094;49.948;11.574;2023-05-07T08:44:58;10.13;;;9.27;;
8102;SDS011;4094;49.948;11.574;2023-05-07T08:47:31;9.63;;;8.80;;
8102;SDS011;4094;49.948;11.574;2023-05-07T08:50:07;9.70;;;8.90;;
8102;SDS011;4094;49.948;11.574;2023-05-07T08:52:38;10.73;;;9.67;;
8102;SDS011;4094;49.948;11.574;2023-05-07T08:55:10;10.80;;;10.00;;
8102;SDS011;4094;49.948;11.574;2023-05-07T08:57:40;9.63;;;8.93;;
8102;SDS011;4094;49.948;11.574;2023-05-07T09:00:11;10.27;;;9.47;;
8102;SDS011;4094;49.948;11.574;2023-05-07T09:02:42;10.27;;;9.47;;
8102;SDS011;4094;49.948;11.574;2023-05-07T09:05:12;9.20;;;8.50;;
8102;SDS011;4094;49.948;11.574;2023-05-07T09:07:41;9.33;;;8.63;;
8102;SDS011;4094;49.948;11.574;2023-05-07T09:10:14;10.00;;;9.20;;
8102;SDS011;4094;49.948;11.574;2023-05-07T09:12:46;9.50;;;8.77;;
8102;SDS011;4094;49.948;11.574;2023-05-07T09:15:17;9.53;;;8.73;;
8102;SDS011;4094;49.948;11.574;2023-05-07T09:17:47;10.27;;;8.03;;
8102;SDS011;4094;49.948;11.574;2023-05-07T09:20:17;8.70;;;7.90;;
8102;SDS011;4094;49.948;11.574;2023-05-07T09:22:46;7.13;;;6.53;;
8102;SDS011;4094;49.948;11.574;2023-05-07T09:25:23;7.97;;;7.37;;
8102;SDS011;4094;49.948;11.574;2023-05-07T09:27:57;8.60;;;7.80;;
8102;SDS011;4094;49.948;11.574;2023-05-07T09:30:27;8.37;;;7.47;;
8102;SDS011;4094;49.948;11.574;2023-05-07T09:33:00;7.67;;;7.07;;
8102;SDS011;4094;49.948;11.574;2023-05-07T09:35:31;7.90;;;7.13;;
8102;SDS011;4094;49.948;11.574;2023-05-07T09:38:06;7.70;;;7.00;;
8102;SDS011;4094;49.948;11.574;2023-05-07T09:40:38;7.47;;;6.87;;
8102;SDS011;4094;49.948;11.574;2023-05-07T09:43:12;7.77;;;7.17;;
8102;SDS011;4094;49.948;11.574;2023-05-07T09:45:48;8.30;;;7.60;;
8102;SDS011;4094;49.948;11.574;2023-05-07T09:48:21;7.83;;;7.17;;
8102;SDS011;4094;49.948;11.574;2023-05-07T09:50:55;7.60;;;7.00;;
8102;SDS011;4094;49.948;11.574;2023-05-07T09:53:29;7.80;;;7.20;;
8102;SDS011;4094;49.948;11.574;2023-05-07T09:56:03;8.27;;;7.57;;
8102;SDS011;4094;49.948;11.574;2023-05-07T09:58:33;7.70;;;6.80;;
8102;SDS011;4094;49.948;11.574;2023-05-07T10:01:06;7.73;;;6.73;;
8102;SDS011;4094;49.948;11.574;2023-05-07T10:03:36;7.60;;;6.87;;
8102;SDS011;4094;49.948;11.574;2023-05-07T10:06:09;6.80;;;6.30;;
8102;SDS011;4094;49.948;11.574;2023-05-07T10:08:39;6.80;;;6.30;;
8102;SDS011;4094;49.948;11.574;2023-05-07T10:11:10;6.80;;;6.30;;
8102;SDS011;4094;49.948;11.574;2023-05-07T10:13:41;7.40;;;6.80;;
8102;SDS011;4094;49.948;11.574;2023-05-07T10:16:12;6.73;;;6.23;;
8102;SDS011;4094;49.948;11.574;2023-05-07T10:18:46;7.07;;;6.33;;
8102;SDS011;4094;49.948;11.574;2023-05-07T10:21:20;6.90;;;6.40;;
8102;SDS011;4094;49.948;11.574;2023-05-07T10:23:58;6.63;;;6.13;;
8102;SDS011;4094;49.948;11.574;2023-05-07T10:26:33;7.20;;;6.60;;
8102;SDS011;4094;49.948;11.574;2023-05-07T10:29:07;6.80;;;6.30;;
8102;SDS011;4094;49.948;11.574;2023-05-07T10:31:49;6.43;;;5.93;;
8102;SDS011;4094;49.948;11.574;2023-05-07T10:34:25;6.53;;;6.07;;
8102;SDS011;4094;49.948;11.574;2023-05-07T10:36:58;7.40;;;6.73;;
8102;SDS011;4094;49.948;11.574;2023-05-07T10:39:29;7.37;;;6.67;;
8102;SDS011;4094;49.948;11.574;2023-05-07T10:42:08;7.00;;;6.40;;
8102;SDS011;4094;49.948;11.574;2023-05-07T10:44:40;6.23;;;5.73;;
8102;SDS011;4094;49.948;11.574;2023-05-07T10:47:16;7.23;;;6.63;;
8102;SDS011;4094;49.948;11.574;2023-05-07T11:02:21;6.90;;;6.30;;
8102;SDS011;4094;49.948;11.574;2023-05-07T11:07:56;6.10;;;5.60;;
8102;SDS011;4094;49.948;11.574;2023-05-07T11:13:42;4.60;;;4.30;;
8102;SDS011;4094;49.948;11.574;2023-05-07T11:16:32;4.13;;;3.83;;
8102;SDS011;4094;49.948;11.574;2023-05-07T11:19:16;4.77;;;4.47;;
8102;SDS011;4094;49.948;11.574;2023-05-07T11:21:49;5.63;;;5.23;;
8102;SDS011;4094;49.948;11.574;2023-05-07T11:24:37;9.17;;;5.40;;
8102;SDS011;4094;49.948;11.574;2023-05-07T11:27:08;5.33;;;4.93;;
8102;SDS011;4094;49.948;11.574;2023-05-07T11:29:38;6.67;;;5.37;;
8102;SDS011;4094;49.948;11.574;2023-05-07T11:32:13;5.23;;;4.83;;
8102;SDS011;4094;49.948;11.574;2023-05-07T11:34:51;5.27;;;4.87;;
8102;SDS011;4094;49.948;11.574;2023-05-07T11:37:21;5.13;;;4.73;;
8102;SDS011;4094;49.948;11.574;2023-05-07T11:40:03;5.37;;;4.97;;
8102;SDS011;4094;49.948;11.574;2023-05-07T11:42:34;5.30;;;4.90;;
8102;SDS011;4094;49.948;11.574;2023-05-07T11:45:06;5.00;;;4.60;;
8102;SDS011;4094;49.948;11.574;2023-05-07T11:47:37;5.13;;;4.73;;
8102;SDS011;4094;49.948;11.574;2023-05-07T11:50:11;4.77;;;4.37;;
8102;SDS011;4094;49.948;11.574;2023-05-07T11:52:40;5.00;;;4.60;;
8102;SDS011;4094;49.948;11.574;2023-05-07T11:55:19;4.87;;;4.47;;
8102;SDS011;4094;49.948;11.574;2023-05-07T11:57:49;4.30;;;4.00;;
8102;SDS011;4094;49.948;11.574;2023-05-07T12:00:19;4.50;;;4.20;;
8102;SDS011;4094;49.948;11.574;2023-05-07T12:02:49;4.93;;;3.90;;
8102;SDS011;4094;49.948;11.574;2023-05-07T12:05:19;4.60;;;4.20;;
8102;SDS011;4094;49.948;11.574;2023-05-07T12:07:48;4.17;;;3.87;;
8102;SDS011;4094;49.948;11.574;2023-05-07T12:10:25;4.33;;;3.93;;
8102;SDS011;4094;49.948;11.574;2023-05-07T12:12:54;3.90;;;3.60;;
8102;SDS011;4094;49.948;11.574;2023-05-07T12:15:23;3.70;;;3.50;;
8102;SDS011;4094;49.948;11.574;2023-05-07T12:17:54;4.10;;;3.80;;
8102;SDS011;4094;49.948;11.574;2023-05-07T12:20:23;3.67;;;3.37;;
8102;SDS011;4094;49.948;11.574;2023-05-07T12:22:53;3.30;;;3.10;;
8102;SDS011;4094;49.948;11.574;2023-05-07T12:25:23;3.50;;;3.20;;
8102;SDS011;4094;49.948;11.574;2023-05-07T12:27:52;3.53;;;3.27;;
8102;SDS011;4094;49.948;11.574;2023-05-07T12:30:23;3.73;;;3.53;;
8102;SDS011;4094;49.948;11.574;2023-05-07T12:32:54;3.80;;;3.50;;
8102;SDS011;4094;49.948;11.574;2023-05-07T12:35:26;4.20;;;3.90;;
8102;SDS011;4094;49.948;11.574;2023-05-07T12:37:56;4.00;;;3.70;;
8102;SDS011;4094;49.948;11.574;2023-05-07T12:40:35;3.80;;;3.50;;
8102;SDS011;4094;49.948;11.574;2023-05-07T12:43:05;4.70;;;4.20;;
8102;SDS011;4094;49.948;11.574;2023-05-07T12:45:37;3.67;;;3.37;;
8102;SDS011;4094;49.948;11.574;2023-05-07T12:48:09;3.80;;;3.50;;
8102;SDS011;4094;49.948;11.574;2023-05-07T12:50:39;3.53;;;3.23;;
8102;SDS011;4094;49.948;11.574;2023-05-07T12:53:11;4.57;;;3.40;;
8102;SDS011;4094;49.948;11.574;2023-05-07T12:55:41;3.70;;;3.40;;
8102;SDS011;4094;49.948;11.574;2023-05-07T12:58:15;3.63;;;3.33;;
8102;SDS011;4094;49.948;11.574;2023-05-07T13:00:46;3.77;;;3.40;;
8102;SDS011;4094;49.948;11.574;2023-05-07T13:03:25;3.90;;;3.60;;
8102;SDS011;4094;49.948;11.574;2023-05-07T13:05:55;4.00;;;3.70;;
8102;SDS011;4094;49.948;11.574;2023-05-07T13:08:26;3.97;;;3.67;;
8102;SDS011;4094;49.948;11.574;2023-05-07T13:10:57;4.10;;;3.70;;
8102;SDS011;4094;49.948;11.574;2023-05-07T13:13:30;9.30;;;3.80;;
8102;SDS011;4094;49.948;11.574;2023-05-07T13:16:00;4.20;;;3.80;;
8102;SDS011;4094;49.948;11.574;2023-05-07T13:18:32;4.80;;;3.97;;
8102;SDS011;4094;49.948;11.574;2023-05-07T13:21:02;4.10;;;3.80;;
8102;SDS011;4094;49.948;11.574;2023-05-07T13:23:32;4.30;;;4.00;;
8102;SDS011;4094;49.948;11.574;2023-05-07T13:26:02;3.90;;;3.60;;
8102;SDS011;4094;49.948;11.574;2023-05-07T13:28:51;4.23;;;3.93;;
8102;SDS011;4094;49.948;11.574;2023-05-07T13:31:20;4.03;;;3.73;;
8102;SDS011;4094;49.948;11.574;2023-05-07T13:33:51;3.83;;;3.53;;
8102;SDS011;4094;49.948;11.574;2023-05-07T13:36:20;4.37;;;3.97;;
8102;SDS011;4094;49.948;11.574;2023-05-07T13:38:49;4.27;;;3.97;;
8102;SDS011;4094;49.948;11.574;2023-05-07T13:41:19;4.10;;;3.80;;
8102;SDS011;4094;49.948;11.574;2023-05-07T13:43:48;3.63;;;3.43;;
8102;SDS011;4094;49.948;11.574;2023-05-07T13:46:17;4.23;;;3.83;;
8102;SDS011;4094;49.948;11.574;2023-05-07T13:48:47;3.80;;;3.50;;
8102;SDS011;4094;49.948;11.574;2023-05-07T13:51:17;3.93;;;3.63;;
8102;SDS011;4094;49.948;11.574;2023-05-07T13:53:47;3.60;;;3.30;;
8102;SDS011;4094;49.948;11.574;2023-05-07T13:56:16;4.17;;;3.77;;
8102;SDS011;4094;49.948;11.574;2023-05-07T13:58:45;4.33;;;3.93;;
8102;SDS011;4094;49.948;11.574;2023-05-07T14:01:27;4.23;;;3.83;;
8102;SDS011;4094;49.948;11.574;2023-05-07T14:03:56;3.87;;;3.57;;
8102;SDS011;4094;49.948;11.574;2023-05-07T14:06:28;4.20;;;3.80;;
8102;SDS011;4094;49.948;11.574;2023-05-07T14:08:57;4.40;;;4.00;;
8102;SDS011;4094;49.948;11.574;2023-05-07T14:11:27;4.33;;;3.93;;
8102;SDS011;4094;49.948;11.574;2023-05-07T14:13:57;4.30;;;4.00;;
8102;SDS011;4094;49.948;11.574;2023-05-07T14:16:26;3.90;;;3.60;;
8102;SDS011;4094;49.948;11.574;2023-05-07T14:18:56;4.00;;;3.70;;
8102;SDS011;4094;49.948;11.574;2023-05-07T14:21:25;4.00;;;3.70;;
8102;SDS011;4094;49.948;11.574;2023-05-07T14:23:56;4.20;;;3.80;;
8102;SDS011;4094;49.948;11.574;2023-05-07T14:26:27;3.83;;;3.53;;
8102;SDS011;4094;49.948;11.574;2023-05-07T14:28:58;3.60;;;3.30;;
8102;SDS011;4094;49.948;11.574;2023-05-07T14:31:28;3.80;;;3.50;;
8102;SDS011;4094;49.948;11.574;2023-05-07T14:33:58;5.03;;;4.63;;
8102;SDS011;4094;49.948;11.574;2023-05-07T14:36:29;4.60;;;4.30;;
8102;SDS011;4094;49.948;11.574;2023-05-07T14:38:59;4.20;;;3.90;;
8102;SDS011;4094;49.948;11.574;2023-05-07T14:41:29;4.77;;;4.37;;
8102;SDS011;4094;49.948;11.574;2023-05-07T14:43:59;4.37;;;4.07;;
8102;SDS011;4094;49.948;11.574;2023-05-07T14:46:29;4.70;;;4.30;;
8102;SDS011;4094;49.948;11.574;2023-05-07T14:48:58;4.40;;;4.10;;
8102;SDS011;4094;49.948;11.574;2023-05-07T14:51:29;4.63;;;4.33;;
8102;SDS011;4094;49.948;11.574;2023-05-07T14:54:00;5.00;;;4.60;;
8102;SDS011;4094;49.948;11.574;2023-05-07T14:56:30;5.20;;;4.80;;
8102;SDS011;4094;49.948;11.574;2023-05-07T14:58:59;5.30;;;4.90;;
8102;SDS011;4094;49.948;11.574;2023-05-07T15:01:28;6.00;;;5.60;;
8102;SDS011;4094;49.948;11.574;2023-05-07T15:03:59;5.60;;;5.03;;
8102;SDS011;4094;49.948;11.574;2023-05-07T15:06:31;5.50;;;5.00;;
8102;SDS011;4094;49.948;11.574;2023-05-07T15:09:01;5.63;;;5.20;;
8102;SDS011;4094;49.948;11.574;2023-05-07T15:11:31;5.10;;;4.70;;
8102;SDS011;4094;49.948;11.574;2023-05-07T15:14:00;5.37;;;4.97;;
8102;SDS011;4094;49.948;11.574;2023-05-07T15:16:30;6.10;;;5.50;;
8102;SDS011;4094;49.948;11.574;2023-05-07T15:19:00;6.47;;;5.10;;
8102;SDS011;4094;49.948;11.574;2023-05-07T15:21:31;5.90;;;5.40;;
8102;SDS011;4094;49.948;11.574;2023-05-07T15:24:02;5.53;;;5.03;;
8102;SDS011;4094;49.948;11.574;2023-05-07T15:26:31;5.20;;;4.80;;
8102;SDS011;4094;49.948;11.574;2023-05-07T15:29:01;5.43;;;5.03;;
8102;SDS011;4094;49.948;11.574;2023-05-07T15:31:35;5.40;;;5.00;;
8102;SDS011;4094;49.948;11.574;2023-05-07T15:34:06;5.77;;;5.27;;
8102;SDS011;4094;49.948;11.574;2023-05-07T15:36:37;5.93;;;5.43;;
8102;SDS011;4094;49.948;11.574;2023-05-07T15:39:07;6.03;;;5.53;;